Accueil
METAR-TAF:

METAR-TAF

Aéroports :

Reus, Espagne

Aéroport de Reus

latitude: 41-09N, longitude: 001-10E, altitude: 71 m

Observation

Le bulletin a été fait il y a 15 minutes, à 19:00 UTC
Vent 3 kt de sud-ouest, variant entre sud/sud-ouest et ouest
Température 11°C
Humidité 54%
Pression 998 hPa
Visibilité 10 km ou plus
Quelques nuages à une hauteur de 3500 ft

METAR: LERS 111900Z 23003KT 200V260 9999 FEW035 11/02 Q0998

Heure: 20:15 (19:15 UTC)

Prévision

Le bulletin a été fait il y a 5 heures et 15 minutes, à 14:00 UTC
Prévision valable du 11 à 15 UTC au 12 à 15 UTC
Vent 8 kt de ouest
Visibilité 10 km ou plus
Nuages épars à une hauteur de 4000 ft

TAF: LERS 111400Z 1115/1215 27008KT 9999 SCT040 TX13/1209Z TN00/1206Z

Observations et prévisions météorologiques de plus de 4000 aéroports (messages METAR et TAF).

Les stations disponibles sont représentées par des disques jaunes et rouges sur la carte.

Passer la souris dessus pour voir le nom de la station.

Cliquer dessus pour voir les observations et prévisions météorologiques.

Pour changer de carte: cliquez sur les boutons verts avec une croix noire pour zoomer, sur le bouton vert avec un tiret pour effectuer un zoom arrière, ou sur les flèches vertes pour les cartes adjacentes.


METAR-TAF: